Flight Information

DEPARTURE
,
Elevation:
DESTINATION
,
Elevation:
TPA:
1000 (est.)


0 NM180° True-66° Var114° HDG

Flight Plan:
(click to file on line)

1. Type
2. Aircraft Identification
3. Aircraft Type / Special Equipment
4. True Airspeed
kts
5. Departure Airport
(ICAO code)
6. Arriving Airport
(ICAO code)
7. Cruising Altitude
ft
8. Alternate Airport
(ICAO code)
9. Route of Flight
10. Remarks


00:00:00 Departure ATIS: Destination ATIS:

Clearance Limit:
Route:
Altitude: Expect in minutes
Frequency:
Transponder: (7500 Hijack / 7600 Lost Comms / 7700 Emergency)


KEND 211556Z AUTO 01018G24KT 10SM SCT150 21/07 A3033 RMK AO2 PK WND 35028/43 SLP263 T02140072 $
Time: 2021-09-21T15:56:00Z
1632243492
Winds: 10 @ 18 kts
Gusting:24 kts
Visibility: 10.0 sm
Clouds (AGL): SCT 15000
Temperature: 21.4 C
Dew Point: 7.2 C
Pressure: 30.33071 in Hgbr

KEND 211556Z AUTO 01018G24KT 10SM SCT150 21/07 A3033 RMK AO2 PK WND 35028/43 SLP263 T02140072 $
Time: 2021-09-21T15:56:00Z
1632243492
Winds: 10 @ 18 kts
Gusting:24 kts
Visibility: 10.0 sm
Clouds (AGL): SCT 15000
Temperature: 21.4 C
Dew Point: 7.2 C
Pressure: 30.33071 in Hgbr


Notes:

Data extracted from FAA Digital Chart Supplement. Effective: 0901Z Thursday, AUG 12, 2021 to 0901Z Thursday, OCT 7, 2021
Current ATIS data is provided courtisy of PilotEdge.